sensor_id;sensor_type;location;lat;lon;timestamp;temperature;humidity
66140;DHT22;52945;51.908;8.364;2023-05-02T00:02:37;16.50;64.60
66140;DHT22;52945;51.908;8.364;2023-05-02T00:05:38;16.40;64.60
66140;DHT22;52945;51.908;8.364;2023-05-02T00:08:38;16.50;65.20
66140;DHT22;52945;51.908;8.364;2023-05-02T00:11:39;16.40;65.80
66140;DHT22;52945;51.908;8.364;2023-05-02T00:14:40;16.40;65.20
66140;DHT22;52945;51.908;8.364;2023-05-02T00:17:41;16.40;65.30
66140;DHT22;52945;51.908;8.364;2023-05-02T00:20:42;16.40;65.00
66140;DHT22;52945;51.908;8.364;2023-05-02T00:23:43;16.40;65.00
66140;DHT22;52945;51.908;8.364;2023-05-02T00:26:43;16.40;65.60
66140;DHT22;52945;51.908;8.364;2023-05-02T00:29:44;16.40;65.20
66140;DHT22;52945;51.908;8.364;2023-05-02T00:32:47;16.40;65.30
66140;DHT22;52945;51.908;8.364;2023-05-02T00:35:47;16.40;65.00
66140;DHT22;52945;51.908;8.364;2023-05-02T00:38:48;16.30;65.00
66140;DHT22;52945;51.908;8.364;2023-05-02T00:41:48;16.30;64.70
66140;DHT22;52945;51.908;8.364;2023-05-02T00:44:49;16.30;64.60
66140;DHT22;52945;51.908;8.364;2023-05-02T00:47:50;16.20;64.60
66140;DHT22;52945;51.908;8.364;2023-05-02T00:50:51;16.20;64.30
66140;DHT22;52945;51.908;8.364;2023-05-02T00:53:51;16.20;64.00
66140;DHT22;52945;51.908;8.364;2023-05-02T00:56:52;16.20;64.30
66140;DHT22;52945;51.908;8.364;2023-05-02T00:59:52;16.10;64.40
66140;DHT22;52945;51.908;8.364;2023-05-02T01:03:04;16.10;64.60
66140;DHT22;52945;51.908;8.364;2023-05-02T01:09:44;16.00;64.80
66140;DHT22;52945;51.908;8.364;2023-05-02T01:13:23;16.00;64.90
66140;DHT22;52945;51.908;8.364;2023-05-02T01:16:26;15.90;64.90
66140;DHT22;52945;51.908;8.364;2023-05-02T01:19:34;15.90;65.00
66140;DHT22;52945;51.908;8.364;2023-05-02T01:22:37;15.80;65.00
66140;DHT22;52945;51.908;8.364;2023-05-02T01:26:14;15.70;65.50
66140;DHT22;52945;51.908;8.364;2023-05-02T01:29:16;15.60;65.70
66140;DHT22;52945;51.908;8.364;2023-05-02T01:32:19;15.60;65.70
66140;DHT22;52945;51.908;8.364;2023-05-02T01:35:22;15.60;65.50
66140;DHT22;52945;51.908;8.364;2023-05-02T01:38:23;15.60;65.70
66140;DHT22;52945;51.908;8.364;2023-05-02T01:41:29;15.60;65.70
66140;DHT22;52945;51.908;8.364;2023-05-02T01:44:31;15.60;65.80
66140;DHT22;52945;51.908;8.364;2023-05-02T01:47:35;15.50;66.00
66140;DHT22;52945;51.908;8.364;2023-05-02T01:50:40;15.50;65.90
66140;DHT22;52945;51.908;8.364;2023-05-02T01:53:42;15.40;66.00
66140;DHT22;52945;51.908;8.364;2023-05-02T01:56:44;15.50;65.80
66140;DHT22;52945;51.908;8.364;2023-05-02T01:59:46;15.50;65.90
66140;DHT22;52945;51.908;8.364;2023-05-02T02:02:50;15.50;65.70
66140;DHT22;52945;51.908;8.364;2023-05-02T02:05:53;15.60;65.50
66140;DHT22;52945;51.908;8.364;2023-05-02T02:08:54;15.50;65.60
66140;DHT22;52945;51.908;8.364;2023-05-02T02:11:56;15.40;66.20
66140;DHT22;52945;51.908;8.364;2023-05-02T02:15:05;15.40;66.20
66140;DHT22;52945;51.908;8.364;2023-05-02T02:18:17;15.40;66.30
66140;DHT22;52945;51.908;8.364;2023-05-02T02:21:19;15.30;66.20
66140;DHT22;52945;51.908;8.364;2023-05-02T02:24:21;15.30;66.30
66140;DHT22;52945;51.908;8.364;2023-05-02T02:27:23;15.20;66.10
66140;DHT22;52945;51.908;8.364;2023-05-02T02:30:23;15.20;66.40
66140;DHT22;52945;51.908;8.364;2023-05-02T02:33:29;15.20;66.70
66140;DHT22;52945;51.908;8.364;2023-05-02T02:37:08;15.20;66.80
66140;DHT22;52945;51.908;8.364;2023-05-02T02:40:27;15.10;66.80
66140;DHT22;52945;51.908;8.364;2023-05-02T02:53:17;15.00;67.10
66140;DHT22;52945;51.908;8.364;2023-05-02T02:56:26;15.00;67.30
66140;DHT22;52945;51.908;8.364;2023-05-02T02:59:31;15.00;67.00
66140;DHT22;52945;51.908;8.364;2023-05-02T03:02:33;15.00;66.90
66140;DHT22;52945;51.908;8.364;2023-05-02T03:05:34;14.90;67.00
66140;DHT22;52945;51.908;8.364;2023-05-02T03:08:42;14.80;67.30
66140;DHT22;52945;51.908;8.364;2023-05-02T03:11:43;14.80;67.40
66140;DHT22;52945;51.908;8.364;2023-05-02T03:14:45;14.70;67.40
66140;DHT22;52945;51.908;8.364;2023-05-02T03:17:46;14.70;67.60
66140;DHT22;52945;51.908;8.364;2023-05-02T03:20:46;14.70;67.30
66140;DHT22;52945;51.908;8.364;2023-05-02T03:23:47;14.70;67.30
66140;DHT22;52945;51.908;8.364;2023-05-02T03:26:47;14.70;67.30
66140;DHT22;52945;51.908;8.364;2023-05-02T03:29:48;14.70;67.20
66140;DHT22;52945;51.908;8.364;2023-05-02T03:32:49;14.70;67.40
66140;DHT22;52945;51.908;8.364;2023-05-02T03:35:49;14.70;67.30
66140;DHT22;52945;51.908;8.364;2023-05-02T03:38:50;14.70;67.40
66140;DHT22;52945;51.908;8.364;2023-05-02T03:41:51;14.70;67.60
66140;DHT22;52945;51.908;8.364;2023-05-02T03:44:52;14.70;67.30
66140;DHT22;52945;51.908;8.364;2023-05-02T03:47:53;14.70;67.30
66140;DHT22;52945;51.908;8.364;2023-05-02T03:50:53;14.70;67.40
66140;DHT22;52945;51.908;8.364;2023-05-02T03:53:54;14.70;67.50
66140;DHT22;52945;51.908;8.364;2023-05-02T03:56:55;14.70;67.50
66140;DHT22;52945;51.908;8.364;2023-05-02T03:59:55;14.70;67.60
66140;DHT22;52945;51.908;8.364;2023-05-02T04:02:56;14.60;67.80
66140;DHT22;52945;51.908;8.364;2023-05-02T04:05:56;14.60;68.00
66140;DHT22;52945;51.908;8.364;2023-05-02T04:08:57;14.60;68.00
66140;DHT22;52945;51.908;8.364;2023-05-02T04:11:58;14.60;68.10
66140;DHT22;52945;51.908;8.364;2023-05-02T04:14:59;14.50;68.60
66140;DHT22;52945;51.908;8.364;2023-05-02T04:18:00;14.50;68.50
66140;DHT22;52945;51.908;8.364;2023-05-02T04:21:00;14.50;68.90
66140;DHT22;52945;51.908;8.364;2023-05-02T04:24:01;14.50;68.70
66140;DHT22;52945;51.908;8.364;2023-05-02T04:27:02;14.50;68.90
66140;DHT22;52945;51.908;8.364;2023-05-02T04:30:02;14.50;69.10
66140;DHT22;52945;51.908;8.364;2023-05-02T04:33:03;14.40;69.30
66140;DHT22;52945;51.908;8.364;2023-05-02T04:36:04;14.40;69.30
66140;DHT22;52945;51.908;8.364;2023-05-02T04:39:05;14.40;69.60
66140;DHT22;52945;51.908;8.364;2023-05-02T04:42:07;14.30;69.80
66140;DHT22;52945;51.908;8.364;2023-05-02T04:45:08;14.30;69.80
66140;DHT22;52945;51.908;8.364;2023-05-02T04:48:08;14.30;70.00
66140;DHT22;52945;51.908;8.364;2023-05-02T04:51:09;14.30;70.20
66140;DHT22;52945;51.908;8.364;2023-05-02T04:54:11;14.30;70.10
66140;DHT22;52945;51.908;8.364;2023-05-02T04:57:11;14.30;70.30
66140;DHT22;52945;51.908;8.364;2023-05-02T05:00:12;14.30;70.40
66140;DHT22;52945;51.908;8.364;2023-05-02T05:03:13;14.20;70.40
66140;DHT22;52945;51.908;8.364;2023-05-02T05:06:13;14.20;70.60
66140;DHT22;52945;51.908;8.364;2023-05-02T05:09:15;14.20;70.90
66140;DHT22;52945;51.908;8.364;2023-05-02T05:12:15;14.30;71.20
66140;DHT22;52945;51.908;8.364;2023-05-02T05:15:16;14.30;71.40
66140;DHT22;52945;51.908;8.364;2023-05-02T05:18:17;14.30;71.30
66140;DHT22;52945;51.908;8.364;2023-05-02T05:21:17;14.30;71.60
66140;DHT22;52945;51.908;8.364;2023-05-02T05:24:18;14.30;71.60
66140;DHT22;52945;51.908;8.364;2023-05-02T05:27:19;14.30;71.90
66140;DHT22;52945;51.908;8.364;2023-05-02T05:30:19;14.30;72.00
66140;DHT22;52945;51.908;8.364;2023-05-02T05:33:20;14.20;72.60
66140;DHT22;52945;51.908;8.364;2023-05-02T05:36:20;14.10;73.50
66140;DHT22;52945;51.908;8.364;2023-05-02T05:39:21;14.20;73.70
66140;DHT22;52945;51.908;8.364;2023-05-02T05:42:22;14.20;73.50
66140;DHT22;52945;51.908;8.364;2023-05-02T05:45:23;14.10;73.20
66140;DHT22;52945;51.908;8.364;2023-05-02T05:48:23;14.00;73.00
66140;DHT22;52945;51.908;8.364;2023-05-02T05:51:24;14.00;72.70
66140;DHT22;52945;51.908;8.364;2023-05-02T05:54:27;13.80;72.10
66140;DHT22;52945;51.908;8.364;2023-05-02T05:57:27;13.80;72.40
66140;DHT22;52945;51.908;8.364;2023-05-02T06:00:28;13.90;72.90
66140;DHT22;52945;51.908;8.364;2023-05-02T06:03:29;14.00;72.80
66140;DHT22;52945;51.908;8.364;2023-05-02T06:06:30;14.00;72.90
66140;DHT22;52945;51.908;8.364;2023-05-02T06:09:31;13.90;72.10
66140;DHT22;52945;51.908;8.364;2023-05-02T06:12:32;13.90;72.80
66140;DHT22;52945;51.908;8.364;2023-05-02T06:15:33;13.90;72.90
66140;DHT22;52945;51.908;8.364;2023-05-02T06:18:34;14.00;72.90
66140;DHT22;52945;51.908;8.364;2023-05-02T06:21:38;14.10;72.70
66140;DHT22;52945;51.908;8.364;2023-05-02T06:24:38;14.10;72.30
66140;DHT22;52945;51.908;8.364;2023-05-02T06:27:39;14.00;71.80
66140;DHT22;52945;51.908;8.364;2023-05-02T06:30:39;14.10;72.30
66140;DHT22;52945;51.908;8.364;2023-05-02T06:33:40;14.10;71.70
66140;DHT22;52945;51.908;8.364;2023-05-02T06:36:42;14.20;71.20
66140;DHT22;52945;51.908;8.364;2023-05-02T06:39:42;14.10;71.30
66140;DHT22;52945;51.908;8.364;2023-05-02T06:42:43;14.00;70.20
66140;DHT22;52945;51.908;8.364;2023-05-02T06:45:44;13.90;69.30
66140;DHT22;52945;51.908;8.364;2023-05-02T06:48:44;13.60;68.40
66140;DHT22;52945;51.908;8.364;2023-05-02T06:51:45;13.30;68.30
66140;DHT22;52945;51.908;8.364;2023-05-02T06:54:46;13.20;68.50
66140;DHT22;52945;51.908;8.364;2023-05-02T06:57:48;13.10;68.70
66140;DHT22;52945;51.908;8.364;2023-05-02T07:00:49;13.10;69.10
66140;DHT22;52945;51.908;8.364;2023-05-02T07:03:49;13.10;69.40
66140;DHT22;52945;51.908;8.364;2023-05-02T07:06:50;13.20;69.20
66140;DHT22;52945;51.908;8.364;2023-05-02T07:09:51;12.90;69.00
66140;DHT22;52945;51.908;8.364;2023-05-02T07:12:51;12.70;69.70
66140;DHT22;52945;51.908;8.364;2023-05-02T07:15:53;12.70;70.00
66140;DHT22;52945;51.908;8.364;2023-05-02T07:18:53;12.40;71.10
66140;DHT22;52945;51.908;8.364;2023-05-02T07:21:54;12.60;71.10
66140;DHT22;52945;51.908;8.364;2023-05-02T07:25:00;12.50;69.80
66140;DHT22;52945;51.908;8.364;2023-05-02T07:28:00;12.50;69.20
66140;DHT22;52945;51.908;8.364;2023-05-02T07:31:01;12.50;69.90
66140;DHT22;52945;51.908;8.364;2023-05-02T07:34:02;12.40;69.20
66140;DHT22;52945;51.908;8.364;2023-05-02T07:37:03;12.50;68.90
66140;DHT22;52945;51.908;8.364;2023-05-02T07:40:04;12.60;68.40
66140;DHT22;52945;51.908;8.364;2023-05-02T07:43:05;12.30;66.50
66140;DHT22;52945;51.908;8.364;2023-05-02T07:46:05;12.50;66.00
66140;DHT22;52945;51.908;8.364;2023-05-02T07:49:06;12.40;66.70
66140;DHT22;52945;51.908;8.364;2023-05-02T07:52:06;12.40;66.80
66140;DHT22;52945;51.908;8.364;2023-05-02T07:55:07;12.40;66.20
66140;DHT22;52945;51.908;8.364;2023-05-02T07:58:08;12.50;65.10
66140;DHT22;52945;51.908;8.364;2023-05-02T08:01:09;12.40;65.00
66140;DHT22;52945;51.908;8.364;2023-05-02T08:04:10;12.40;64.50
66140;DHT22;52945;51.908;8.364;2023-05-02T08:07:12;12.40;63.50
66140;DHT22;52945;51.908;8.364;2023-05-02T08:10:12;12.40;63.00
66140;DHT22;52945;51.908;8.364;2023-05-02T08:13:13;12.40;62.80
66140;DHT22;52945;51.908;8.364;2023-05-02T08:16:14;12.50;63.00
66140;DHT22;52945;51.908;8.364;2023-05-02T08:19:15;12.50;62.10
66140;DHT22;52945;51.908;8.364;2023-05-02T08:22:15;12.60;62.50
66140;DHT22;52945;51.908;8.364;2023-05-02T08:25:16;12.60;61.90
66140;DHT22;52945;51.908;8.364;2023-05-02T08:28:16;12.60;61.80
66140;DHT22;52945;51.908;8.364;2023-05-02T08:31:18;12.50;61.10
66140;DHT22;52945;51.908;8.364;2023-05-02T08:34:18;12.50;62.20
66140;DHT22;52945;51.908;8.364;2023-05-02T08:37:19;12.60;62.30
66140;DHT22;52945;51.908;8.364;2023-05-02T08:40:21;12.70;62.00
66140;DHT22;52945;51.908;8.364;2023-05-02T08:43:22;12.70;61.30
66140;DHT22;52945;51.908;8.364;2023-05-02T08:46:22;12.70;61.40
66140;DHT22;52945;51.908;8.364;2023-05-02T08:49:25;12.70;61.50
66140;DHT22;52945;51.908;8.364;2023-05-02T08:52:28;12.70;60.90
66140;DHT22;52945;51.908;8.364;2023-05-02T08:55:28;12.70;60.70
66140;DHT22;52945;51.908;8.364;2023-05-02T08:58:29;12.70;60.80
66140;DHT22;52945;51.908;8.364;2023-05-02T09:01:30;12.80;60.90
66140;DHT22;52945;51.908;8.364;2023-05-02T09:04:33;12.80;61.00
66140;DHT22;52945;51.908;8.364;2023-05-02T09:07:44;12.80;61.20
66140;DHT22;52945;51.908;8.364;2023-05-02T09:10:46;12.90;60.60
66140;DHT22;52945;51.908;8.364;2023-05-02T09:13:48;12.80;60.30
66140;DHT22;52945;51.908;8.364;2023-05-02T09:16:57;12.80;60.40
66140;DHT22;52945;51.908;8.364;2023-05-02T09:19:59;12.80;59.80
66140;DHT22;52945;51.908;8.364;2023-05-02T09:23:00;12.90;59.10
66140;DHT22;52945;51.908;8.364;2023-05-02T09:26:01;12.90;58.80
66140;DHT22;52945;51.908;8.364;2023-05-02T09:29:09;12.90;58.70
66140;DHT22;52945;51.908;8.364;2023-05-02T09:32:10;13.00;57.80
66140;DHT22;52945;51.908;8.364;2023-05-02T09:35:10;13.00;56.90
66140;DHT22;52945;51.908;8.364;2023-05-02T09:38:18;12.90;56.80
66140;DHT22;52945;51.908;8.364;2023-05-02T09:41:20;13.10;55.70
66140;DHT22;52945;51.908;8.364;2023-05-02T09:44:23;13.10;55.10
66140;DHT22;52945;51.908;8.364;2023-05-02T09:47:24;13.20;55.50
66140;DHT22;52945;51.908;8.364;2023-05-02T09:53:42;13.40;55.10
66140;DHT22;52945;51.908;8.364;2023-05-02T09:56:56;13.40;54.20
66140;DHT22;52945;51.908;8.364;2023-05-02T09:59:57;13.40;55.50
66140;DHT22;52945;51.908;8.364;2023-05-02T10:02:58;13.50;54.90
66140;DHT22;52945;51.908;8.364;2023-05-02T10:05:58;13.50;54.30
66140;DHT22;52945;51.908;8.364;2023-05-02T10:09:00;13.60;54.10
66140;DHT22;52945;51.908;8.364;2023-05-02T10:12:02;13.50;54.00
66140;DHT22;52945;51.908;8.364;2023-05-02T10:15:09;13.50;54.10
66140;DHT22;52945;51.908;8.364;2023-05-02T10:18:13;13.50;53.30
66140;DHT22;52945;51.908;8.364;2023-05-02T10:21:25;13.60;54.00
66140;DHT22;52945;51.908;8.364;2023-05-02T10:24:31;13.70;53.90
66140;DHT22;52945;51.908;8.364;2023-05-02T10:27:32;13.60;53.40
66140;DHT22;52945;51.908;8.364;2023-05-02T10:30:34;13.70;53.20
66140;DHT22;52945;51.908;8.364;2023-05-02T10:33:35;13.80;53.90
66140;DHT22;52945;51.908;8.364;2023-05-02T10:36:37;13.90;53.30
66140;DHT22;52945;51.908;8.364;2023-05-02T10:39:38;14.00;52.60
66140;DHT22;52945;51.908;8.364;2023-05-02T10:42:41;14.00;51.70
66140;DHT22;52945;51.908;8.364;2023-05-02T10:45:42;14.10;51.50
66140;DHT22;52945;51.908;8.364;2023-05-02T10:49:08;14.10;51.60
66140;DHT22;52945;51.908;8.364;2023-05-02T10:52:38;14.20;51.70
66140;DHT22;52945;51.908;8.364;2023-05-02T10:55:40;14.20;51.00
66140;DHT22;52945;51.908;8.364;2023-05-02T10:58:44;14.20;51.20
66140;DHT22;52945;51.908;8.364;2023-05-02T11:01:45;14.10;50.50
66140;DHT22;52945;51.908;8.364;2023-05-02T11:05:05;14.10;50.50
66140;DHT22;52945;51.908;8.364;2023-05-02T11:14:42;14.20;50.70
66140;DHT22;52945;51.908;8.364;2023-05-02T11:17:58;14.20;50.60
66140;DHT22;52945;51.908;8.364;2023-05-02T11:21:29;14.20;50.20
66140;DHT22;52945;51.908;8.364;2023-05-02T11:27:40;14.50;50.20
66140;DHT22;52945;51.908;8.364;2023-05-02T11:30:44;14.60;50.80
66140;DHT22;52945;51.908;8.364;2023-05-02T11:33:58;14.70;50.40
66140;DHT22;52945;51.908;8.364;2023-05-02T11:36:59;14.80;49.50
66140;DHT22;52945;51.908;8.364;2023-05-02T11:40:12;14.80;49.70
66140;DHT22;52945;51.908;8.364;2023-05-02T11:43:15;14.80;49.00
66140;DHT22;52945;51.908;8.364;2023-05-02T11:46:16;14.80;48.60
66140;DHT22;52945;51.908;8.364;2023-05-02T11:49:18;14.70;48.70
66140;DHT22;52945;51.908;8.364;2023-05-02T11:52:19;14.50;48.50
66140;DHT22;52945;51.908;8.364;2023-05-02T11:55:20;14.40;49.40
66140;DHT22;52945;51.908;8.364;2023-05-02T11:58:22;14.60;49.30
66140;DHT22;52945;51.908;8.364;2023-05-02T12:01:23;14.50;49.20
66140;DHT22;52945;51.908;8.364;2023-05-02T12:04:24;14.50;49.10
66140;DHT22;52945;51.908;8.364;2023-05-02T12:07:36;14.20;49.00
66140;DHT22;52945;51.908;8.364;2023-05-02T12:10:37;14.30;49.60
66140;DHT22;52945;51.908;8.364;2023-05-02T12:13:44;14.20;48.70
66140;DHT22;52945;51.908;8.364;2023-05-02T12:16:45;14.30;48.10
66140;DHT22;52945;51.908;8.364;2023-05-02T12:19:46;14.30;47.70
66140;DHT22;52945;51.908;8.364;2023-05-02T12:22:48;14.30;48.20
66140;DHT22;52945;51.908;8.364;2023-05-02T12:25:48;14.30;47.80
66140;DHT22;52945;51.908;8.364;2023-05-02T12:28:50;14.40;47.20
66140;DHT22;52945;51.908;8.364;2023-05-02T12:31:51;14.30;46.10
66140;DHT22;52945;51.908;8.364;2023-05-02T12:34:52;14.30;46.00
66140;DHT22;52945;51.908;8.364;2023-05-02T12:37:53;14.40;46.40
66140;DHT22;52945;51.908;8.364;2023-05-02T12:40:54;14.50;45.80
66140;DHT22;52945;51.908;8.364;2023-05-02T12:43:56;14.70;46.10
66140;DHT22;52945;51.908;8.364;2023-05-02T12:46:59;14.50;45.20
66140;DHT22;52945;51.908;8.364;2023-05-02T12:50:00;14.70;44.80
66140;DHT22;52945;51.908;8.364;2023-05-02T12:53:01;14.80;44.30
66140;DHT22;52945;51.908;8.364;2023-05-02T12:56:03;14.70;43.20
66140;DHT22;52945;51.908;8.364;2023-05-02T12:59:04;14.70;42.90
66140;DHT22;52945;51.908;8.364;2023-05-02T13:02:05;14.80;43.50
66140;DHT22;52945;51.908;8.364;2023-05-02T13:05:18;15.00;42.70
66140;DHT22;52945;51.908;8.364;2023-05-02T13:08:19;15.10;41.80
66140;DHT22;52945;51.908;8.364;2023-05-02T13:11:20;15.20;41.40
66140;DHT22;52945;51.908;8.364;2023-05-02T13:14:20;15.30;40.40
66140;DHT22;52945;51.908;8.364;2023-05-02T13:17:21;15.30;40.50
66140;DHT22;52945;51.908;8.364;2023-05-02T13:20:22;15.50;40.70
66140;DHT22;52945;51.908;8.364;2023-05-02T13:23:22;15.60;40.20
66140;DHT22;52945;51.908;8.364;2023-05-02T13:26:23;15.70;39.90
66140;DHT22;52945;51.908;8.364;2023-05-02T13:29:24;15.70;39.50
66140;DHT22;52945;51.908;8.364;2023-05-02T13:32:24;15.90;39.30
66140;DHT22;52945;51.908;8.364;2023-05-02T13:35:25;15.90;37.70
66140;DHT22;52945;51.908;8.364;2023-05-02T13:38:26;16.10;38.20
66140;DHT22;52945;51.908;8.364;2023-05-02T13:41:26;16.00;37.20
66140;DHT22;52945;51.908;8.364;2023-05-02T13:44:27;16.20;38.50
66140;DHT22;52945;51.908;8.364;2023-05-02T13:47:27;16.50;38.70
66140;DHT22;52945;51.908;8.364;2023-05-02T13:50:28;16.20;38.00
66140;DHT22;52945;51.908;8.364;2023-05-02T13:53:28;15.90;38.30
66140;DHT22;52945;51.908;8.364;2023-05-02T13:56:29;15.80;38.70
66140;DHT22;52945;51.908;8.364;2023-05-02T13:59:30;15.80;38.90
66140;DHT22;52945;51.908;8.364;2023-05-02T14:02:30;15.80;38.70
66140;DHT22;52945;51.908;8.364;2023-05-02T14:05:31;15.90;38.80
66140;DHT22;52945;51.908;8.364;2023-05-02T14:08:31;16.10;37.90
66140;DHT22;52945;51.908;8.364;2023-05-02T14:11:32;15.80;37.20
66140;DHT22;52945;51.908;8.364;2023-05-02T14:14:33;15.70;38.00
66140;DHT22;52945;51.908;8.364;2023-05-02T14:17:35;15.70;38.60
66140;DHT22;52945;51.908;8.364;2023-05-02T14:20:35;15.90;38.60
66140;DHT22;52945;51.908;8.364;2023-05-02T14:23:36;16.10;38.50
66140;DHT22;52945;51.908;8.364;2023-05-02T14:26:37;16.10;38.10
66140;DHT22;52945;51.908;8.364;2023-05-02T14:29:38;16.10;38.20
66140;DHT22;52945;51.908;8.364;2023-05-02T14:32:39;16.00;37.60
66140;DHT22;52945;51.908;8.364;2023-05-02T14:35:39;16.00;37.10
66140;DHT22;52945;51.908;8.364;2023-05-02T14:38:40;15.70;37.40
66140;DHT22;52945;51.908;8.364;2023-05-02T14:41:41;15.80;37.00
66140;DHT22;52945;51.908;8.364;2023-05-02T14:44:41;15.70;37.60
66140;DHT22;52945;51.908;8.364;2023-05-02T14:47:42;15.80;37.80
66140;DHT22;52945;51.908;8.364;2023-05-02T14:50:43;15.90;38.10
66140;DHT22;52945;51.908;8.364;2023-05-02T14:53:43;16.00;38.70
66140;DHT22;52945;51.908;8.364;2023-05-02T14:56:44;16.10;38.50
66140;DHT22;52945;51.908;8.364;2023-05-02T14:59:46;16.10;38.10
66140;DHT22;52945;51.908;8.364;2023-05-02T15:02:46;16.10;38.00
66140;DHT22;52945;51.908;8.364;2023-05-02T15:05:47;16.10;37.50
66140;DHT22;52945;51.908;8.364;2023-05-02T15:08:47;16.20;38.10
66140;DHT22;52945;51.908;8.364;2023-05-02T15:11:49;16.20;37.50
66140;DHT22;52945;51.908;8.364;2023-05-02T15:14:50;16.20;37.70
66140;DHT22;52945;51.908;8.364;2023-05-02T15:17:50;16.30;37.30
66140;DHT22;52945;51.908;8.364;2023-05-02T15:20:52;16.10;37.20
66140;DHT22;52945;51.908;8.364;2023-05-02T15:23:52;16.20;36.90
66140;DHT22;52945;51.908;8.364;2023-05-02T15:26:53;16.20;36.70
66140;DHT22;52945;51.908;8.364;2023-05-02T15:29:53;16.20;36.70
66140;DHT22;52945;51.908;8.364;2023-05-02T15:32:54;16.10;36.40
66140;DHT22;52945;51.908;8.364;2023-05-02T15:35:56;16.00;36.10
66140;DHT22;52945;51.908;8.364;2023-05-02T15:38:57;16.10;36.30
66140;DHT22;52945;51.908;8.364;2023-05-02T15:42:01;16.20;36.40
66140;DHT22;52945;51.908;8.364;2023-05-02T15:45:03;16.30;36.50
66140;DHT22;52945;51.908;8.364;2023-05-02T15:48:04;16.40;36.60
66140;DHT22;52945;51.908;8.364;2023-05-02T15:51:05;16.60;36.00
66140;DHT22;52945;51.908;8.364;2023-05-02T15:54:05;16.70;35.50
66140;DHT22;52945;51.908;8.364;2023-05-02T15:57:06;16.70;35.10
66140;DHT22;52945;51.908;8.364;2023-05-02T16:00:07;16.70;35.90
66140;DHT22;52945;51.908;8.364;2023-05-02T16:03:10;16.70;36.10
66140;DHT22;52945;51.908;8.364;2023-05-02T16:06:11;16.70;36.10
66140;DHT22;52945;51.908;8.364;2023-05-02T16:09:12;16.20;35.80
66140;DHT22;52945;51.908;8.364;2023-05-02T16:12:12;16.10;36.30
66140;DHT22;52945;51.908;8.364;2023-05-02T16:15:13;16.20;36.10
66140;DHT22;52945;51.908;8.364;2023-05-02T16:18:14;16.20;36.00
66140;DHT22;52945;51.908;8.364;2023-05-02T16:21:15;16.20;35.50
66140;DHT22;52945;51.908;8.364;2023-05-02T16:24:16;16.00;35.90
66140;DHT22;52945;51.908;8.364;2023-05-02T16:27:16;16.10;36.30
66140;DHT22;52945;51.908;8.364;2023-05-02T16:30:17;16.10;36.30
66140;DHT22;52945;51.908;8.364;2023-05-02T16:33:18;16.10;36.20
66140;DHT22;52945;51.908;8.364;2023-05-02T16:36:19;15.80;35.90
66140;DHT22;52945;51.908;8.364;2023-05-02T16:39:19;15.80;36.60
66140;DHT22;52945;51.908;8.364;2023-05-02T16:42:20;15.90;36.80
66140;DHT22;52945;51.908;8.364;2023-05-02T16:45:20;16.00;36.90
66140;DHT22;52945;51.908;8.364;2023-05-02T16:48:21;15.90;37.20
66140;DHT22;52945;51.908;8.364;2023-05-02T16:51:22;15.80;36.70
66140;DHT22;52945;51.908;8.364;2023-05-02T16:54:23;15.70;37.40
66140;DHT22;52945;51.908;8.364;2023-05-02T16:57:24;15.70;37.40
66140;DHT22;52945;51.908;8.364;2023-05-02T17:00:24;15.70;37.40
66140;DHT22;52945;51.908;8.364;2023-05-02T17:03:25;15.60;37.40
66140;DHT22;52945;51.908;8.364;2023-05-02T17:06:26;15.70;37.70
66140;DHT22;52945;51.908;8.364;2023-05-02T17:09:27;15.60;37.70
66140;DHT22;52945;51.908;8.364;2023-05-02T17:12:27;15.60;38.00
66140;DHT22;52945;51.908;8.364;2023-05-02T17:15:28;15.40;37.80
66140;DHT22;52945;51.908;8.364;2023-05-02T17:18:29;15.40;38.20
66140;DHT22;52945;51.908;8.364;2023-05-02T17:21:29;15.30;38.70
66140;DHT22;52945;51.908;8.364;2023-05-02T17:24:30;15.30;38.60
66140;DHT22;52945;51.908;8.364;2023-05-02T17:27:31;15.20;38.90
66140;DHT22;52945;51.908;8.364;2023-05-02T17:30:32;15.20;39.20
66140;DHT22;52945;51.908;8.364;2023-05-02T17:33:32;14.90;39.70
66140;DHT22;52945;51.908;8.364;2023-05-02T17:36:33;14.90;40.50
66140;DHT22;52945;51.908;8.364;2023-05-02T17:39:34;14.90;40.60
66140;DHT22;52945;51.908;8.364;2023-05-02T17:42:35;14.90;40.50
66140;DHT22;52945;51.908;8.364;2023-05-02T17:45:35;14.80;40.30
66140;DHT22;52945;51.908;8.364;2023-05-02T17:48:41;14.60;40.50
66140;DHT22;52945;51.908;8.364;2023-05-02T17:51:42;14.60;40.80
66140;DHT22;52945;51.908;8.364;2023-05-02T17:54:42;14.70;41.00
66140;DHT22;52945;51.908;8.364;2023-05-02T17:57:44;14.70;40.40
66140;DHT22;52945;51.908;8.364;2023-05-02T18:00:44;14.70;39.70
66140;DHT22;52945;51.908;8.364;2023-05-02T18:03:45;14.70;40.00
66140;DHT22;52945;51.908;8.364;2023-05-02T18:06:47;14.40;39.80
66140;DHT22;52945;51.908;8.364;2023-05-02T18:09:49;14.40;40.30
66140;DHT22;52945;51.908;8.364;2023-05-02T18:12:52;14.40;40.20
66140;DHT22;52945;51.908;8.364;2023-05-02T18:15:59;14.40;40.20
66140;DHT22;52945;51.908;8.364;2023-05-02T18:19:03;14.10;40.50
66140;DHT22;52945;51.908;8.364;2023-05-02T18:22:04;14.10;40.90
66140;DHT22;52945;51.908;8.364;2023-05-02T18:25:05;14.20;40.60
66140;DHT22;52945;51.908;8.364;2023-05-02T18:28:05;14.10;40.60
66140;DHT22;52945;51.908;8.364;2023-05-02T18:31:17;14.10;41.00
66140;DHT22;52945;51.908;8.364;2023-05-02T18:34:18;14.20;41.10
66140;DHT22;52945;51.908;8.364;2023-05-02T18:37:18;14.20;41.10
66140;DHT22;52945;51.908;8.364;2023-05-02T18:40:19;14.20;41.20
66140;DHT22;52945;51.908;8.364;2023-05-02T18:43:21;14.10;41.10
66140;DHT22;52945;51.908;8.364;2023-05-02T18:46:21;13.80;41.40
66140;DHT22;52945;51.908;8.364;2023-05-02T18:49:23;13.80;41.60
66140;DHT22;52945;51.908;8.364;2023-05-02T18:52:24;13.80;42.30
66140;DHT22;52945;51.908;8.364;2023-05-02T18:55:24;13.90;42.00
66140;DHT22;52945;51.908;8.364;2023-05-02T18:58:25;13.80;42.30
66140;DHT22;52945;51.908;8.364;2023-05-02T19:01:26;13.90;42.70
66140;DHT22;52945;51.908;8.364;2023-05-02T19:04:29;13.90;42.70
66140;DHT22;52945;51.908;8.364;2023-05-02T19:07:30;13.80;42.90
66140;DHT22;52945;51.908;8.364;2023-05-02T19:10:31;13.80;42.90
66140;DHT22;52945;51.908;8.364;2023-05-02T19:13:32;13.70;42.80
66140;DHT22;52945;51.908;8.364;2023-05-02T19:16:32;13.60;43.00
66140;DHT22;52945;51.908;8.364;2023-05-02T19:19:35;13.60;43.30
66140;DHT22;52945;51.908;8.364;2023-05-02T19:22:35;13.60;43.50
66140;DHT22;52945;51.908;8.364;2023-05-02T19:25:40;13.60;43.10
66140;DHT22;52945;51.908;8.364;2023-05-02T19:28:41;13.60;43.20
66140;DHT22;52945;51.908;8.364;2023-05-02T19:31:41;13.40;43.50
66140;DHT22;52945;51.908;8.364;2023-05-02T19:34:43;13.50;43.40
66140;DHT22;52945;51.908;8.364;2023-05-02T19:37:43;13.40;43.20